Time;durP1;ratioP1;P1;durP2;ratioP2;P2;SDS_P1;SDS_P2;PMS_P1;PMS_P2;Temp;Humidity;BMP_temperature;BMP_pressure;BME280_temperature;BME280_humidity;BME280_pressure;Samples;Min_cycle;Max_cycle;Signal;HPM_P1;HPM_P2
2022/03/02 00:00:39;;;;;;;43.47;19.13;;;;;;;;;;4462009;32;20294;-55
2022/03/02 00:03:05;;;;;;;39.60;19.57;;;;;;;;;;4462054;32;20310;-56
2022/03/02 00:05:30;;;;;;;39.23;19.57;;;;;;;;;;4461867;32;20344;-56
2022/03/02 00:07:56;;;;;;;31.40;19.10;;;;;;;;;;4462034;32;20323;-65
2022/03/02 00:10:22;;;;;;;32.90;19.17;;;;;;;;;;4461740;32;20244;-56
2022/03/02 00:12:48;;;;;;;28.80;15.57;;;;;;;;;;4462369;32;20314;-57
2022/03/02 00:15:13;;;;;;;33.10;15.80;;;;;;;;;;4447345;32;20278;-57
2022/03/02 00:17:39;;;;;;;28.80;15.03;;;;;;;;;;4447360;32;20350;-57
2022/03/02 00:20:05;;;;;;;27.20;13.93;;;;;;;;;;4447161;32;20275;-55
2022/03/02 00:22:31;;;;;;;28.80;13.93;;;;;;;;;;4459467;32;20399;-55
2022/03/02 00:24:57;;;;;;;27.13;13.53;;;;;;;;;;4431933;32;20248;-54
2022/03/02 00:27:26;;;;;;;21.47;12.07;;;;;;;;;;4446249;32;20217;-54
2022/03/02 00:29:52;;;;;;;18.73;11.70;;;;;;;;;;4450544;32;20624;-57
2022/03/02 00:32:17;;;;;;;14.77;10.27;;;;;;;;;;4447125;32;20425;-56
2022/03/02 00:34:43;;;;;;;17.67;10.13;;;;;;;;;;4461912;32;20318;-56
2022/03/02 00:37:09;;;;;;;14.90;10.47;;;;;;;;;;4447423;32;20384;-56
2022/03/02 00:39:35;;;;;;;15.00;9.57;;;;;;;;;;4447089;32;20232;-55
2022/03/02 00:42:01;;;;;;;16.83;10.30;;;;;;;;;;4447390;32;20295;-55
2022/03/02 00:44:26;;;;;;;16.47;9.47;;;;;;;;;;4461604;32;20262;-55
2022/03/02 00:46:53;;;;;;;17.87;10.07;;;;;;;;;;4461359;32;20385;-56
2022/03/02 00:49:18;;;;;;;23.63;12.13;;;;;;;;;;4461328;32;20273;-55
2022/03/02 00:51:44;;;;;;;31.30;16.27;;;;;;;;;;4461667;32;20307;-58
2022/03/02 00:54:10;;;;;;;26.00;13.53;;;;;;;;;;4447196;32;20434;-54
2022/03/02 00:56:36;;;;;;;20.07;11.77;;;;;;;;;;4441679;32;20340;-56
2022/03/02 00:59:02;;;;;;;23.53;13.33;;;;;;;;;;4461456;32;20232;-56
2022/03/02 01:01:27;;;;;;;17.17;9.60;;;;;;;;;;4461255;32;20354;-54
2022/03/02 01:03:53;;;;;;;21.67;11.77;;;;;;;;;;4461448;32;20303;-54
2022/03/02 01:06:18;;;;;;;23.17;13.00;;;;;;;;;;4461958;32;20283;-55
2022/03/02 01:08:44;;;;;;;20.90;12.40;;;;;;;;;;4464376;32;20251;-55
2022/03/02 01:11:10;;;;;;;23.63;11.87;;;;;;;;;;4464299;32;20299;-55
2022/03/02 01:13:36;;;;;;;19.87;11.23;;;;;;;;;;4464390;32;20294;-56
2022/03/02 01:16:02;;;;;;;34.30;13.97;;;;;;;;;;4463918;32;20614;-55
2022/03/02 01:18:28;;;;;;;27.83;14.10;;;;;;;;;;4463989;32;20283;-55
2022/03/02 01:20:54;;;;;;;22.70;11.43;;;;;;;;;;4449843;32;20255;-56
2022/03/02 01:23:20;;;;;;;24.97;12.47;;;;;;;;;;4464080;32;20295;-56
2022/03/02 01:25:45;;;;;;;20.80;12.67;;;;;;;;;;4436431;32;20227;-56
2022/03/02 01:28:11;;;;;;;21.53;11.97;;;;;;;;;;4464365;32;20196;-55
2022/03/02 01:30:36;;;;;;;22.80;12.27;;;;;;;;;;4463946;32;20228;-55
2022/03/02 01:33:02;;;;;;;13.07;9.43;;;;;;;;;;4463648;32;20357;-55
2022/03/02 01:35:28;;;;;;;15.23;8.97;;;;;;;;;;4463984;32;20346;-54
2022/03/02 01:37:53;;;;;;;11.23;8.27;;;;;;;;;;4463990;32;20366;-55
2022/03/02 01:40:19;;;;;;;13.37;8.43;;;;;;;;;;4463824;32;20652;-54
2022/03/02 01:42:44;;;;;;;11.97;7.87;;;;;;;;;;4463797;32;20303;-55
2022/03/02 01:45:13;;;;;;;18.77;9.57;;;;;;;;;;4463942;32;20306;-54
2022/03/02 01:47:39;;;;;;;29.57;13.80;;;;;;;;;;4464085;32;20224;-56
2022/03/02 01:50:08;;;;;;;36.30;16.23;;;;;;;;;;4463408;32;20244;-56
2022/03/02 01:52:33;;;;;;;40.37;20.80;;;;;;;;;;4449267;32;20221;-56
2022/03/02 01:54:59;;;;;;;21.30;13.27;;;;;;;;;;4463637;32;20662;-56
2022/03/02 01:57:24;;;;;;;38.27;16.63;;;;;;;;;;4436265;32;20319;-57
2022/03/02 01:59:50;;;;;;;17.03;9.33;;;;;;;;;;4462280;32;20422;-55
2022/03/02 02:02:16;;;;;;;15.37;8.13;;;;;;;;;;4463312;32;20620;-56
2022/03/02 02:04:41;;;;;;;10.97;7.43;;;;;;;;;;4449364;32;20656;-56
2022/03/02 02:07:07;;;;;;;10.10;7.20;;;;;;;;;;4449273;32;20329;-56
2022/03/02 02:09:32;;;;;;;16.63;7.10;;;;;;;;;;4463097;32;20319;-57
2022/03/02 02:11:58;;;;;;;16.10;7.90;;;;;;;;;;4463508;32;20272;-57
2022/03/02 02:14:23;;;;;;;9.30;6.80;;;;;;;;;;4448245;32;20701;-55
2022/03/02 02:16:49;;;;;;;10.03;7.17;;;;;;;;;;4462378;32;20295;-55
2022/03/02 02:19:15;;;;;;;8.47;5.57;;;;;;;;;;4462463;32;20268;-55
2022/03/02 02:21:40;;;;;;;9.27;6.57;;;;;;;;;;4462854;32;20664;-56
2022/03/02 02:24:06;;;;;;;27.70;14.63;;;;;;;;;;4449136;32;20270;-56
2022/03/02 02:26:32;;;;;;;27.80;15.17;;;;;;;;;;4462914;32;20224;-54
2022/03/02 02:28:58;;;;;;;14.33;7.20;;;;;;;;;;4463132;32;20232;-55
2022/03/02 02:31:24;;;;;;;12.63;6.27;;;;;;;;;;4462775;32;20196;-55
2022/03/02 02:33:53;;;;;;;11.17;6.17;;;;;;;;;;4462846;32;20483;-54
2022/03/02 02:36:19;;;;;;;10.50;5.97;;;;;;;;;;4448746;32;20609;-55
2022/03/02 02:38:45;;;;;;;11.00;6.77;;;;;;;;;;4462981;32;20227;-54
2022/03/02 02:41:10;;;;;;;12.07;7.03;;;;;;;;;;4462711;32;20280;-54
2022/03/02 02:43:37;;;;;;;10.67;6.47;;;;;;;;;;4463239;32;20247;-55
2022/03/02 02:46:03;;;;;;;7.93;5.17;;;;;;;;;;4448196;32;20581;-56
2022/03/02 02:48:29;;;;;;;9.50;6.57;;;;;;;;;;4462806;32;20326;-56
2022/03/02 02:50:54;;;;;;;11.90;5.20;;;;;;;;;;4448556;32;20249;-59
2022/03/02 02:53:20;;;;;;;12.53;6.73;;;;;;;;;;4462749;32;20415;-54
2022/03/02 02:55:46;;;;;;;10.40;5.03;;;;;;;;;;4460153;32;20204;-55
2022/03/02 02:58:12;;;;;;;171.67;59.13;;;;;;;;;;4432949;32;20295;-57
2022/03/02 03:00:41;;;;;;;176.73;63.20;;;;;;;;;;4462281;32;20232;-56
2022/03/02 03:03:07;;;;;;;67.63;25.93;;;;;;;;;;4462417;32;20248;-56
2022/03/02 03:05:34;;;;;;;42.97;17.10;;;;;;;;;;4462270;32;20232;-56
2022/03/02 03:08:01;;;;;;;25.90;11.63;;;;;;;;;;4448516;32;20339;-57
2022/03/02 03:10:27;;;;;;;14.07;7.60;;;;;;;;;;4462421;32;20312;-55
2022/03/02 03:12:53;;;;;;;7.90;5.53;;;;;;;;;;4448532;32;20279;-55
2022/03/02 03:15:20;;;;;;;6.70;5.60;;;;;;;;;;4446373;32;20424;-55
2022/03/02 03:17:46;;;;;;;8.50;5.80;;;;;;;;;;4446920;32;20193;-55
2022/03/02 03:20:15;;;;;;;8.17;5.67;;;;;;;;;;4446415;32;20244;-55
2022/03/02 03:22:41;;;;;;;9.27;5.67;;;;;;;;;;4432545;32;20300;-55
2022/03/02 03:25:08;;;;;;;9.47;6.00;;;;;;;;;;4446844;32;20301;-55
2022/03/02 03:27:35;;;;;;;12.80;6.00;;;;;;;;;;4447133;32;20507;-54
2022/03/02 03:30:02;;;;;;;5.67;4.70;;;;;;;;;;4445951;32;20240;-55
2022/03/02 03:32:27;;;;;;;8.93;5.77;;;;;;;;;;4446545;32;20279;-55
2022/03/02 03:34:53;;;;;;;10.13;6.20;;;;;;;;;;4446412;32;20824;-55
2022/03/02 03:37:19;;;;;;;7.30;4.60;;;;;;;;;;4446612;32;20204;-54
2022/03/02 03:39:45;;;;;;;7.43;5.40;;;;;;;;;;4446731;32;20655;-55
2022/03/02 03:42:11;;;;;;;12.23;6.30;;;;;;;;;;4449910;32;20287;-58
2022/03/02 03:44:37;;;;;;;10.57;5.67;;;;;;;;;;4447821;32;20356;-54
2022/03/02 03:47:03;;;;;;;5.93;4.97;;;;;;;;;;4448496;32;20382;-57
2022/03/02 03:49:28;;;;;;;6.50;5.20;;;;;;;;;;4446531;32;20392;-56
2022/03/02 03:51:54;;;;;;;10.37;6.30;;;;;;;;;;4432736;32;20370;-56
2022/03/02 03:54:20;;;;;;;12.90;7.60;;;;;;;;;;4446437;32;20615;-56
2022/03/02 03:56:45;;;;;;;14.03;8.43;;;;;;;;;;4432350;32;20308;-57
2022/03/02 03:59:11;;;;;;;7.00;5.37;;;;;;;;;;4446298;32;20605;-56
2022/03/02 04:01:36;;;;;;;5.90;3.97;;;;;;;;;;4432146;32;20334;-56
2022/03/02 04:04:02;;;;;;;5.30;4.23;;;;;;;;;;4446252;32;20228;-57
2022/03/02 04:06:27;;;;;;;6.83;4.73;;;;;;;;;;4461528;32;20433;-57
2022/03/02 04:08:53;;;;;;;9.90;4.60;;;;;;;;;;4447460;32;20709;-57
2022/03/02 04:11:19;;;;;;;13.90;7.93;;;;;;;;;;4461818;32;20722;-56
2022/03/02 04:13:44;;;;;;;17.43;9.20;;;;;;;;;;4447755;32;20336;-55
2022/03/02 04:16:10;;;;;;;12.97;8.37;;;;;;;;;;4461514;32;20260;-57
2022/03/02 04:18:36;;;;;;;10.90;7.20;;;;;;;;;;4447479;32;20227;-57
2022/03/02 04:21:01;;;;;;;8.17;5.63;;;;;;;;;;4449060;32;20212;-55
2022/03/02 04:23:27;;;;;;;7.57;5.63;;;;;;;;;;4446213;32;20290;-57
2022/03/02 04:25:54;;;;;;;14.33;6.20;;;;;;;;;;4446468;32;20261;-56
2022/03/02 04:28:20;;;;;;;14.17;7.90;;;;;;;;;;4446428;32;20239;-56
2022/03/02 04:30:46;;;;;;;17.83;8.87;;;;;;;;;;4445960;32;20220;-54
2022/03/02 04:33:12;;;;;;;16.60;11.40;;;;;;;;;;4446279;32;20329;-56
2022/03/02 04:35:38;;;;;;;28.53;14.47;;;;;;;;;;4446050;32;20694;-55
2022/03/02 04:38:03;;;;;;;34.53;15.57;;;;;;;;;;4446137;32;20402;-56
2022/03/02 04:40:30;;;;;;;26.80;15.37;;;;;;;;;;4446231;32;20246;-55
2022/03/02 04:42:56;;;;;;;35.33;17.27;;;;;;;;;;4456416;32;20307;-55
2022/03/02 04:45:27;;;;;;;29.43;15.10;;;;;;;;;;4464668;32;20250;-55
2022/03/02 04:47:54;;;;;;;28.43;15.43;;;;;;;;;;4464472;32;20189;-54
2022/03/02 04:50:20;;;;;;;29.33;15.77;;;;;;;;;;4450525;32;20258;-55
2022/03/02 04:52:47;;;;;;;41.00;19.20;;;;;;;;;;4464747;32;20279;-57
2022/03/02 04:55:13;;;;;;;45.57;23.03;;;;;;;;;;4464613;32;20756;-57
2022/03/02 04:57:46;;;;;;;36.93;20.63;;;;;;;;;;4464616;32;20268;-56
2022/03/02 05:00:14;;;;;;;49.50;26.33;;;;;;;;;;4464356;32;20323;-56
2022/03/02 05:02:41;;;;;;;49.53;25.87;;;;;;;;;;4464881;32;20445;-56
2022/03/02 05:05:08;;;;;;;41.83;23.77;;;;;;;;;;4464099;32;20898;-56
2022/03/02 05:07:34;;;;;;;43.27;22.47;;;;;;;;;;4464149;32;20244;-56
2022/03/02 05:10:00;;;;;;;39.17;23.17;;;;;;;;;;4449821;32;20667;-56
2022/03/02 05:12:26;;;;;;;47.00;25.87;;;;;;;;;;4464079;32;20234;-54
2022/03/02 05:14:51;;;;;;;47.70;25.10;;;;;;;;;;4463934;32;20655;-57
2022/03/02 05:17:18;;;;;;;36.07;19.47;;;;;;;;;;4463952;32;20381;-56
2022/03/02 05:19:44;;;;;;;55.37;26.90;;;;;;;;;;4460404;32;20227;-55
2022/03/02 05:22:10;;;;;;;53.57;31.97;;;;;;;;;;4448793;32;20287;-54
2022/03/02 05:24:36;;;;;;;70.10;36.23;;;;;;;;;;4448978;32;20252;-57
2022/03/02 05:27:02;;;;;;;76.47;33.43;;;;;;;;;;4448486;32;20262;-55
2022/03/02 05:29:27;;;;;;;63.20;34.27;;;;;;;;;;4448645;32;20255;-54
2022/03/02 05:31:53;;;;;;;62.43;33.33;;;;;;;;;;4448434;32;20302;-54
2022/03/02 05:34:19;;;;;;;68.27;34.83;;;;;;;;;;4447270;32;20225;-55
2022/03/02 05:36:44;;;;;;;55.73;25.90;;;;;;;;;;4448016;32;20256;-54
2022/03/02 05:39:10;;;;;;;56.13;28.77;;;;;;;;;;4447967;32;20406;-55
2022/03/02 05:41:35;;;;;;;36.17;22.73;;;;;;;;;;4448118;32;20306;-54
2022/03/02 05:44:02;;;;;;;50.97;24.37;;;;;;;;;;4462294;32;20652;-56
2022/03/02 05:46:27;;;;;;;30.67;17.17;;;;;;;;;;4462989;32;20797;-54
2022/03/02 05:48:53;;;;;;;29.77;17.93;;;;;;;;;;4463499;32;20391;-55
2022/03/02 05:51:19;;;;;;;34.40;18.33;;;;;;;;;;4462913;32;20363;-57
2022/03/02 05:53:45;;;;;;;40.47;22.00;;;;;;;;;;4462292;32;20287;-54
2022/03/02 05:56:11;;;;;;;92.50;44.07;;;;;;;;;;4463119;32;20312;-59
2022/03/02 05:58:36;;;;;;;49.37;28.97;;;;;;;;;;4462898;32;20231;-55
2022/03/02 06:01:03;;;;;;;64.70;32.57;;;;;;;;;;4462992;32;20188;-56
2022/03/02 06:03:29;;;;;;;37.73;20.43;;;;;;;;;;4463215;32;20276;-56
2022/03/02 06:05:55;;;;;;;27.80;18.90;;;;;;;;;;4463329;32;20243;-55
2022/03/02 06:08:21;;;;;;;25.77;17.40;;;;;;;;;;4463812;32;20692;-57
2022/03/02 06:10:48;;;;;;;41.80;18.70;;;;;;;;;;4464410;32;20200;-56
2022/03/02 06:13:14;;;;;;;30.30;18.10;;;;;;;;;;4463133;32;20264;-55
2022/03/02 06:15:40;;;;;;;37.47;16.40;;;;;;;;;;4464285;32;20205;-56
2022/03/02 06:18:06;;;;;;;24.37;14.63;;;;;;;;;;4463816;32;20347;-56
2022/03/02 06:20:32;;;;;;;20.43;12.07;;;;;;;;;;4462599;32;20681;-54
2022/03/02 06:22:59;;;;;;;32.70;16.47;;;;;;;;;;4463950;32;20672;-56
2022/03/02 06:25:26;;;;;;;46.30;18.07;;;;;;;;;;4463945;32;20217;-55
2022/03/02 06:27:52;;;;;;;42.93;18.90;;;;;;;;;;4463177;32;20691;-54
2022/03/02 06:30:17;;;;;;;50.70;20.97;;;;;;;;;;4462200;32;20546;-55
2022/03/02 06:32:43;;;;;;;36.30;16.50;;;;;;;;;;4462027;32;20287;-55
2022/03/02 06:35:09;;;;;;;33.70;17.03;;;;;;;;;;4461501;32;20382;-54
2022/03/02 06:37:34;;;;;;;34.03;15.40;;;;;;;;;;4462110;32;20286;-55
2022/03/02 06:40:03;;;;;;;28.07;13.50;;;;;;;;;;4461746;32;20394;-56
2022/03/02 06:42:47;;;;;;;46.77;14.40;;;;;;;;;;4447473;32;20642;-56
2022/03/02 06:45:28;;;;;;;28.07;14.20;;;;;;;;;;4463393;32;20331;-54
2022/03/02 06:48:02;;;;;;;36.63;16.60;;;;;;;;;;4463741;32;20599;-55
2022/03/02 06:50:31;;;;;;;38.53;18.63;;;;;;;;;;4464506;32;20246;-56
2022/03/02 06:53:01;;;;;;;36.13;17.53;;;;;;;;;;4449640;32;20570;-56
2022/03/02 06:55:29;;;;;;;42.53;20.07;;;;;;;;;;4463797;32;20211;-56
2022/03/02 06:57:57;;;;;;;29.80;14.43;;;;;;;;;;4449421;32;20273;-55
2022/03/02 07:00:23;;;;;;;38.57;17.47;;;;;;;;;;4463654;32;20216;-55
2022/03/02 07:03:03;;;;;;;30.97;16.30;;;;;;;;;;4446639;32;20393;-55
2022/03/02 07:05:28;;;;;;;30.43;16.53;;;;;;;;;;4449295;32;20289;-54
2022/03/02 07:07:54;;;;;;;34.80;16.13;;;;;;;;;;4463454;32;20297;-55
2022/03/02 07:10:20;;;;;;;35.43;17.53;;;;;;;;;;4463592;32;20307;-53
2022/03/02 07:12:46;;;;;;;46.17;17.63;;;;;;;;;;4462303;32;20275;-56
2022/03/02 07:15:12;;;;;;;36.80;17.43;;;;;;;;;;4463287;32;20240;-55
2022/03/02 07:17:39;;;;;;;30.30;16.17;;;;;;;;;;4463642;32;20326;-55
2022/03/02 07:20:07;;;;;;;30.90;17.10;;;;;;;;;;4463265;32;20252;-56
2022/03/02 07:22:42;;;;;;;25.30;16.60;;;;;;;;;;4461861;32;20272;-55
2022/03/02 07:25:19;;;;;;;25.67;15.63;;;;;;;;;;4449272;32;20227;-54
2022/03/02 07:27:45;;;;;;;25.50;16.20;;;;;;;;;;4463892;32;20204;-54
2022/03/02 07:30:11;;;;;;;26.07;16.17;;;;;;;;;;4448967;32;20385;-55
2022/03/02 07:32:41;;;;;;;30.07;17.27;;;;;;;;;;4463634;32;20307;-56
2022/03/02 07:35:07;;;;;;;30.73;18.97;;;;;;;;;;4463827;32;20594;-55
2022/03/02 07:37:33;;;;;;;35.60;21.13;;;;;;;;;;4463979;32;20297;-56
2022/03/02 07:39:59;;;;;;;38.70;19.73;;;;;;;;;;4463242;32;20323;-56
2022/03/02 07:42:25;;;;;;;32.07;18.60;;;;;;;;;;4463435;32;20276;-55
2022/03/02 07:44:51;;;;;;;38.40;19.77;;;;;;;;;;4463417;32;20306;-56
2022/03/02 07:47:18;;;;;;;44.40;20.63;;;;;;;;;;4463344;32;20192;-55
2022/03/02 07:49:45;;;;;;;31.30;20.33;;;;;;;;;;4462593;32;20655;-55
2022/03/02 07:52:13;;;;;;;30.13;19.40;;;;;;;;;;4463511;32;20235;-57
2022/03/02 07:54:40;;;;;;;38.27;21.40;;;;;;;;;;4462905;32;20303;-55
2022/03/02 07:57:08;;;;;;;36.57;22.37;;;;;;;;;;4463406;32;20196;-55
2022/03/02 07:59:36;;;;;;;35.80;21.30;;;;;;;;;;4448698;32;20229;-55
2022/03/02 08:02:07;;;;;;;44.53;24.40;;;;;;;;;;4449150;32;20614;-55
2022/03/02 08:04:35;;;;;;;52.80;28.70;;;;;;;;;;4463021;32;20212;-55
2022/03/02 08:07:01;;;;;;;44.13;25.43;;;;;;;;;;4463209;32;20287;-55
2022/03/02 08:09:26;;;;;;;43.27;24.83;;;;;;;;;;4448839;32;20718;-55
2022/03/02 08:11:52;;;;;;;46.33;25.17;;;;;;;;;;4462781;32;20331;-55
2022/03/02 08:14:18;;;;;;;38.57;20.83;;;;;;;;;;4448453;32;20306;-55
2022/03/02 08:16:47;;;;;;;38.00;18.67;;;;;;;;;;4448860;32;20289;-55
2022/03/02 08:19:13;;;;;;;42.73;20.17;;;;;;;;;;4462165;32;20641;-55
2022/03/02 08:21:43;;;;;;;36.40;18.87;;;;;;;;;;4463134;32;20283;-55
2022/03/02 08:24:12;;;;;;;23.57;15.60;;;;;;;;;;4462787;32;20324;-55
2022/03/02 08:26:39;;;;;;;27.57;15.23;;;;;;;;;;4462870;32;20456;-55
2022/03/02 08:29:10;;;;;;;33.13;16.67;;;;;;;;;;4463149;32;20243;-55
2022/03/02 08:31:39;;;;;;;26.73;15.57;;;;;;;;;;4463134;32;20231;-55
2022/03/02 08:34:06;;;;;;;16.63;11.27;;;;;;;;;;4463083;32;20216;-56
2022/03/02 08:36:34;;;;;;;19.97;11.87;;;;;;;;;;4449281;32;20493;-57
2022/03/02 08:39:04;;;;;;;17.33;9.63;;;;;;;;;;4448538;32;20215;-55
2022/03/02 08:41:30;;;;;;;13.77;6.30;;;;;;;;;;4463127;32;20207;-56
2022/03/02 08:43:57;;;;;;;7.07;5.17;;;;;;;;;;4462717;32;20224;-56
2022/03/02 08:46:24;;;;;;;18.23;10.00;;;;;;;;;;4462796;32;20402;-55
2022/03/02 08:48:50;;;;;;;48.10;14.27;;;;;;;;;;4462753;32;20244;-56
2022/03/02 08:51:16;;;;;;;9.37;5.50;;;;;;;;;;4463125;32;20327;-55
2022/03/02 08:53:43;;;;;;;12.90;6.70;;;;;;;;;;4463010;32;20239;-56
2022/03/02 08:56:09;;;;;;;8.90;5.40;;;;;;;;;;4462824;32;20224;-56
2022/03/02 08:58:37;;;;;;;33.83;13.17;;;;;;;;;;4462312;32;20384;-55
2022/03/02 09:01:02;;;;;;;7.87;5.73;;;;;;;;;;4461096;32;20208;-54
2022/03/02 09:03:33;;;;;;;7.90;5.17;;;;;;;;;;4462544;32;20347;-54
2022/03/02 09:06:02;;;;;;;7.43;3.43;;;;;;;;;;4448630;32;20250;-56
2022/03/02 09:08:27;;;;;;;10.60;6.97;;;;;;;;;;4454957;32;20209;-56
2022/03/02 09:10:53;;;;;;;10.40;6.53;;;;;;;;;;4446487;32;20216;-55
2022/03/02 09:13:19;;;;;;;5.70;4.40;;;;;;;;;;4445523;32;20321;-56
2022/03/02 09:15:45;;;;;;;9.83;6.10;;;;;;;;;;4446925;32;20236;-55
2022/03/02 09:18:10;;;;;;;20.97;10.13;;;;;;;;;;4446957;32;20255;-55
2022/03/02 09:20:40;;;;;;;22.30;10.13;;;;;;;;;;4446763;32;20232;-55
2022/03/02 09:23:06;;;;;;;7.60;5.40;;;;;;;;;;4447076;32;20224;-56
2022/03/02 09:25:35;;;;;;;7.87;4.63;;;;;;;;;;4446484;32;20251;-56
2022/03/02 09:28:01;;;;;;;14.37;7.30;;;;;;;;;;4446820;32;20204;-56
2022/03/02 09:30:27;;;;;;;9.33;5.87;;;;;;;;;;4449803;32;20274;-56
2022/03/02 09:32:54;;;;;;;13.57;8.53;;;;;;;;;;4448872;32;20315;-57
2022/03/02 09:35:21;;;;;;;12.50;6.30;;;;;;;;;;4448448;32;20243;-55
2022/03/02 09:37:49;;;;;;;14.07;7.40;;;;;;;;;;4448046;32;20679;-55
2022/03/02 09:40:33;;;;;;;9.63;5.37;;;;;;;;;;4449366;32;20251;-56
2022/03/02 09:43:05;;;;;;;13.93;7.87;;;;;;;;;;4450764;32;20226;-55
2022/03/02 09:45:32;;;;;;;12.50;7.10;;;;;;;;;;4463555;32;20319;-56
2022/03/02 09:48:01;;;;;;;13.27;6.90;;;;;;;;;;4462588;32;20287;-55
2022/03/02 09:50:33;;;;;;;18.90;7.50;;;;;;;;;;4449168;32;20604;-55
2022/03/02 09:53:02;;;;;;;11.63;6.57;;;;;;;;;;4464607;32;20270;-55
2022/03/02 09:55:28;;;;;;;21.03;9.67;;;;;;;;;;4450095;32;20215;-55
2022/03/02 09:57:57;;;;;;;15.53;9.77;;;;;;;;;;4463870;32;20662;-55
2022/03/02 10:00:24;;;;;;;9.50;6.20;;;;;;;;;;4450258;32;20277;-55
2022/03/02 10:02:55;;;;;;;7.87;5.53;;;;;;;;;;4464485;32;20324;-56
2022/03/02 10:05:26;;;;;;;11.17;6.67;;;;;;;;;;4449981;32;20337;-56
2022/03/02 10:07:56;;;;;;;16.77;8.53;;;;;;;;;;4456166;32;20631;-55
2022/03/02 10:10:25;;;;;;;8.73;6.07;;;;;;;;;;4464561;32;20709;-56
2022/03/02 10:12:53;;;;;;;8.63;5.17;;;;;;;;;;4449809;32;20303;-56
2022/03/02 10:15:19;;;;;;;9.50;5.10;;;;;;;;;;4448992;32;20307;-56
2022/03/02 10:17:53;;;;;;;8.93;6.60;;;;;;;;;;4464032;32;20227;-55
2022/03/02 10:20:25;;;;;;;15.83;8.60;;;;;;;;;;4462937;32;20249;-56
2022/03/02 10:23:28;;;;;;;17.00;10.00;;;;;;;;;;4464472;32;20286;-55
2022/03/02 10:26:05;;;;;;;34.40;11.07;;;;;;;;;;4463505;32;20235;-55
2022/03/02 10:28:39;;;;;;;14.33;8.03;;;;;;;;;;4449466;32;20434;-56
2022/03/02 10:31:13;;;;;;;16.23;8.20;;;;;;;;;;4463473;32;20216;-56
2022/03/02 10:33:52;;;;;;;8.87;5.57;;;;;;;;;;4463965;32;20227;-55
2022/03/02 10:36:20;;;;;;;9.37;5.87;;;;;;;;;;4462995;32;20754;-56
2022/03/02 10:38:58;;;;;;;10.63;6.47;;;;;;;;;;4449371;32;20550;-56
2022/03/02 10:41:25;;;;;;;10.67;5.63;;;;;;;;;;4463429;32;21112;-56
2022/03/02 10:44:04;;;;;;;17.30;5.93;;;;;;;;;;4463170;32;20588;-56
2022/03/02 10:46:30;;;;;;;11.13;5.73;;;;;;;;;;4449542;32;20245;-57
2022/03/02 10:49:04;;;;;;;9.17;6.37;;;;;;;;;;4448717;32;20303;-55
2022/03/02 10:51:31;;;;;;;12.00;6.57;;;;;;;;;;4448740;32;20224;-57
2022/03/02 10:54:01;;;;;;;10.17;6.97;;;;;;;;;;4445979;32;20236;-55
2022/03/02 10:56:27;;;;;;;16.80;7.73;;;;;;;;;;4463085;32;20196;-56
2022/03/02 10:58:54;;;;;;;14.97;8.10;;;;;;;;;;4462100;32;20252;-56
2022/03/02 11:01:20;;;;;;;17.00;8.13;;;;;;;;;;4462713;32;20214;-56
2022/03/02 11:03:46;;;;;;;16.57;6.73;;;;;;;;;;4463016;32;20295;-54
2022/03/02 11:06:13;;;;;;;10.40;6.80;;;;;;;;;;4461850;32;20274;-57
2022/03/02 11:08:41;;;;;;;14.70;7.97;;;;;;;;;;4461899;32;20270;-56
2022/03/02 11:11:08;;;;;;;14.07;8.33;;;;;;;;;;4462526;32;20352;-55
2022/03/02 11:13:34;;;;;;;10.70;6.77;;;;;;;;;;4462889;32;20254;-57
2022/03/02 11:16:03;;;;;;;13.77;8.33;;;;;;;;;;4458089;32;20619;-54
2022/03/02 11:18:48;;;;;;;12.70;6.60;;;;;;;;;;4447388;32;20414;-55
2022/03/02 11:21:17;;;;;;;16.03;7.30;;;;;;;;;;4447419;32;20237;-55
2022/03/02 11:23:49;;;;;;;14.50;8.73;;;;;;;;;;4455908;32;20234;-54
2022/03/02 11:26:27;;;;;;;12.90;8.73;;;;;;;;;;4446177;32;20351;-55
2022/03/02 11:28:58;;;;;;;27.67;8.07;;;;;;;;;;4446898;32;20239;-55
2022/03/02 11:31:30;;;;;;;20.07;10.70;;;;;;;;;;4451800;32;20365;-55
2022/03/02 11:34:14;;;;;;;11.27;6.63;;;;;;;;;;4451359;32;20624;-56
2022/03/02 11:36:41;;;;;;;15.43;8.93;;;;;;;;;;4445983;32;20228;-56
2022/03/02 11:39:08;;;;;;;14.47;7.00;;;;;;;;;;4456491;32;20655;-56
2022/03/02 11:41:36;;;;;;;8.30;6.03;;;;;;;;;;4457354;32;20676;-56
2022/03/02 11:44:24;;;;;;;7.57;5.17;;;;;;;;;;4462109;32;20224;-56
2022/03/02 11:46:50;;;;;;;6.90;5.33;;;;;;;;;;4462324;32;20996;-55
2022/03/02 11:49:16;;;;;;;23.30;9.10;;;;;;;;;;4462734;32;20339;-55
2022/03/02 11:51:41;;;;;;;9.43;5.43;;;;;;;;;;4461263;32;20699;-55
2022/03/02 11:54:09;;;;;;;5.23;4.20;;;;;;;;;;4461964;32;20232;-55
2022/03/02 11:56:35;;;;;;;7.60;5.80;;;;;;;;;;4462343;32;20223;-54
2022/03/02 11:59:08;;;;;;;12.00;6.30;;;;;;;;;;4454341;32;20610;-55
2022/03/02 12:01:43;;;;;;;13.90;8.43;;;;;;;;;;4432229;32;20254;-54
2022/03/02 12:04:10;;;;;;;12.83;7.57;;;;;;;;;;4446790;32;20244;-56
2022/03/02 12:06:50;;;;;;;21.17;8.00;;;;;;;;;;4433048;32;20301;-56
2022/03/02 12:09:23;;;;;;;18.50;11.47;;;;;;;;;;4447020;32;20240;-55
2022/03/02 12:11:49;;;;;;;48.87;25.30;;;;;;;;;;4432504;32;20255;-56
2022/03/02 12:14:15;;;;;;;19.00;10.30;;;;;;;;;;4446718;32;20228;-55
2022/03/02 12:16:41;;;;;;;17.43;11.17;;;;;;;;;;4446751;32;20287;-55
2022/03/02 12:19:24;;;;;;;10.80;7.17;;;;;;;;;;4446474;32;20591;-55
2022/03/02 12:21:53;;;;;;;18.33;10.63;;;;;;;;;;4445360;32;20574;-54
2022/03/02 12:24:27;;;;;;;15.60;9.37;;;;;;;;;;4447305;32;20632;-55
2022/03/02 12:27:00;;;;;;;14.00;7.63;;;;;;;;;;4446976;32;20361;-56
2022/03/02 12:29:26;;;;;;;32.27;9.87;;;;;;;;;;4447293;32;20342;-56
2022/03/02 12:32:06;;;;;;;18.57;8.87;;;;;;;;;;4446791;32;20253;-54
2022/03/02 12:34:40;;;;;;;12.00;8.40;;;;;;;;;;4446308;32;20244;-55
2022/03/02 12:37:08;;;;;;;13.07;7.80;;;;;;;;;;4446144;32;20211;-55
2022/03/02 12:39:34;;;;;;;14.20;9.37;;;;;;;;;;4446796;32;20228;-56
2022/03/02 12:42:04;;;;;;;11.67;7.93;;;;;;;;;;4448682;32;20347;-55
2022/03/02 12:44:35;;;;;;;20.40;7.97;;;;;;;;;;4462326;32;20220;-56
2022/03/02 12:47:06;;;;;;;15.67;8.23;;;;;;;;;;4462331;32;20309;-55
2022/03/02 12:49:33;;;;;;;10.70;7.00;;;;;;;;;;4462308;32;20583;-55
2022/03/02 12:51:59;;;;;;;10.90;7.50;;;;;;;;;;4448090;32;20229;-56
2022/03/02 12:54:25;;;;;;;16.97;8.30;;;;;;;;;;4461572;32;20224;-55
2022/03/02 12:56:51;;;;;;;11.77;8.07;;;;;;;;;;4448894;32;20686;-55
2022/03/02 12:59:18;;;;;;;9.20;6.93;;;;;;;;;;4461646;32;20289;-57
2022/03/02 13:01:45;;;;;;;15.63;10.23;;;;;;;;;;4462265;32;20601;-56
2022/03/02 13:04:15;;;;;;;16.07;10.47;;;;;;;;;;4450668;32;20686;-57
2022/03/02 13:06:51;;;;;;;10.47;6.10;;;;;;;;;;4465384;32;20266;-56
2022/03/02 13:09:20;;;;;;;11.27;6.90;;;;;;;;;;4465050;32;20598;-56
2022/03/02 13:11:45;;;;;;;15.07;8.67;;;;;;;;;;4451757;32;20267;-57
2022/03/02 13:14:37;;;;;;;11.10;7.77;;;;;;;;;;4465090;32;20542;-57
2022/03/02 13:17:16;;;;;;;17.93;12.80;;;;;;;;;;4461484;32;20243;-56
2022/03/02 13:19:49;;;;;;;26.17;9.97;;;;;;;;;;4461562;32;20216;-56
2022/03/02 13:22:27;;;;;;;15.37;8.63;;;;;;;;;;4450283;32;20303;-55
2022/03/02 13:24:54;;;;;;;15.37;9.37;;;;;;;;;;4449732;32;20216;-55
2022/03/02 13:27:21;;;;;;;20.60;9.47;;;;;;;;;;4449589;32;20286;-56
2022/03/02 13:30:06;;;;;;;9.07;6.63;;;;;;;;;;4459080;32;20212;-56
2022/03/02 13:32:54;;;;;;;20.57;11.23;;;;;;;;;;4465359;32;20200;-56
2022/03/02 13:35:31;;;;;;;20.93;12.10;;;;;;;;;;4464908;32;20228;-55
2022/03/02 13:37:58;;;;;;;24.90;12.37;;;;;;;;;;4465025;32;20230;-54
2022/03/02 13:40:35;;;;;;;22.20;12.07;;;;;;;;;;4464829;32;20339;-55
2022/03/02 13:43:06;;;;;;;19.67;11.73;;;;;;;;;;4464635;32;20267;-55
2022/03/02 13:45:40;;;;;;;55.20;25.57;;;;;;;;;;4464947;32;20553;-55
2022/03/02 13:48:18;;;;;;;40.93;20.50;;;;;;;;;;4464777;32;20256;-55
2022/03/02 13:50:57;;;;;;;30.00;18.40;;;;;;;;;;4464905;32;20208;-55
2022/03/02 13:53:45;;;;;;;19.57;13.03;;;;;;;;;;4450461;32;20220;-55
2022/03/02 13:56:12;;;;;;;19.30;11.40;;;;;;;;;;4464355;32;20303;-55
2022/03/02 13:58:39;;;;;;;17.20;11.90;;;;;;;;;;4464774;32;20556;-55
2022/03/02 14:01:26;;;;;;;18.07;10.07;;;;;;;;;;4464564;32;20288;-56
2022/03/02 14:04:02;;;;;;;31.70;15.40;;;;;;;;;;4464325;32;20216;-54
2022/03/02 14:06:29;;;;;;;24.20;13.47;;;;;;;;;;4464607;32;20275;-56
2022/03/02 14:08:55;;;;;;;21.60;13.13;;;;;;;;;;4463975;32;20734;-56
2022/03/02 14:11:29;;;;;;;21.80;12.43;;;;;;;;;;4464909;32;20211;-57
2022/03/02 14:13:55;;;;;;;30.63;13.87;;;;;;;;;;4464071;32;20275;-56
2022/03/02 14:16:20;;;;;;;22.00;11.63;;;;;;;;;;4464579;32;20636;-56
2022/03/02 14:18:47;;;;;;;32.93;18.40;;;;;;;;;;4464406;32;20327;-57
2022/03/02 14:21:15;;;;;;;25.77;14.73;;;;;;;;;;4450801;32;20591;-56
2022/03/02 14:23:48;;;;;;;16.80;10.23;;;;;;;;;;4448946;32;20263;-55
2022/03/02 14:26:13;;;;;;;14.43;10.20;;;;;;;;;;4459816;32;20205;-55
2022/03/02 14:28:41;;;;;;;23.80;13.07;;;;;;;;;;4450439;32;20560;-56
2022/03/02 14:31:08;;;;;;;17.97;12.03;;;;;;;;;;4464260;32;20263;-56